Time;durP1;ratioP1;P1;durP2;ratioP2;P2;SDS_P1;SDS_P2;PMS_P1;PMS_P2;Temp;Humidity;BMP_temperature;BMP_pressure;BME280_temperature;BME280_humidity;BME280_pressure;Samples;Min_cycle;Max_cycle;Signal;HPM_P1;HPM_P2
2024/04/16 00:06:36;;;;;;;8.48;1.38;;;7.80;1.00;;;;;;22194630;26;20037;-78
2024/04/16 00:16:37;;;;;;;7.90;1.40;;;7.90;1.00;;;;;;22198875;26;20355;-75
2024/04/16 00:26:39;;;;;;;10.02;1.50;;;7.90;1.00;;;;;;22195333;26;20397;-77
2024/04/16 00:36:40;;;;;;;5.20;1.00;;;8.00;1.00;;;;;;22211448;26;20008;-75
2024/04/16 00:46:41;;;;;;;8.38;1.40;;;7.60;1.00;;;;;;22209827;26;20005;-75
2024/04/16 00:56:42;;;;;;;9.05;1.25;;;7.30;1.00;;;;;;22192196;26;20000;-75
2024/04/16 01:06:43;;;;;;;7.07;1.15;;;7.50;1.00;;;;;;22205751;26;20064;-75
2024/04/16 01:16:44;;;;;;;7.38;1.05;;;7.50;1.00;;;;;;22217258;26;20127;-76
2024/04/16 01:26:45;;;;;;;4.28;0.45;;;7.40;1.00;;;;;;22218338;26;20077;-75
2024/04/16 01:36:46;;;;;;;1.77;0.20;;;7.50;1.00;;;;;;22190794;26;20008;-76
2024/04/16 01:46:47;;;;;;;1.95;0.30;;;6.70;1.00;;;;;;22199267;26;20001;-77
2024/04/16 01:56:50;;;;;;;5.95;0.70;;;6.10;39.30;;;;;;22187285;26;20011;-74
2024/04/16 02:06:51;;;;;;;2.75;0.50;;;6.00;97.40;;;;;;22172978;26;20008;-75
2024/04/16 02:16:53;;;;;;;2.28;0.38;;;6.00;99.90;;;;;;22200405;26;20591;-76
2024/04/16 02:26:54;;;;;;;3.42;1.17;;;5.90;99.90;;;;;;22189892;26;20011;-75
2024/04/16 02:36:55;;;;;;;3.88;0.80;;;5.70;99.90;;;;;;22181223;26;20873;-78
2024/04/16 02:46:56;;;;;;;4.07;0.70;;;5.70;99.90;;;;;;22193534;26;20004;-77
2024/04/16 02:56:57;;;;;;;2.40;0.90;;;5.90;99.90;;;;;;22258189;26;19996;-78
2024/04/16 03:06:58;;;;;;;7.30;1.17;;;5.90;99.90;;;;;;22246701;26;20015;-78
2024/04/16 03:16:59;;;;;;;9.10;1.20;;;6.00;99.90;;;;;;22190699;26;20016;-78
2024/04/16 03:27:01;;;;;;;5.95;2.00;;;5.90;99.90;;;;;;22210517;26;20000;-78
2024/04/16 03:37:02;;;;;;;10.10;1.42;;;6.00;99.90;;;;;;22185878;26;20055;-78
2024/04/16 03:47:03;;;;;;;8.18;1.88;;;6.20;99.90;;;;;;22183662;26;20046;-78
2024/04/16 03:57:04;;;;;;;8.10;1.10;;;6.30;99.90;;;;;;22203692;26;20355;-77
2024/04/16 04:07:05;;;;;;;3.90;0.70;;;6.60;99.90;;;;;;22203966;26;20011;-77
2024/04/16 04:17:06;;;;;;;6.95;0.90;;;6.50;99.90;;;;;;22220088;26;20004;-77
2024/04/16 04:27:07;;;;;;;3.33;0.80;;;6.40;99.90;;;;;;22212180;26;19996;-78
2024/04/16 04:37:08;;;;;;;3.35;0.60;;;6.40;99.90;;;;;;22174732;26;19996;-77
2024/04/16 04:47:09;;;;;;;5.32;0.63;;;6.30;99.90;;;;;;22194352;26;20000;-77
2024/04/16 04:57:10;;;;;;;7.20;1.17;;;6.40;99.90;;;;;;22205948;26;20000;-77
2024/04/16 05:07:11;;;;;;;9.52;1.10;;;6.50;99.90;;;;;;22155336;26;20024;-77
2024/04/16 05:17:13;;;;;;;10.93;2.28;;;6.70;99.90;;;;;;22198091;26;20008;-76
2024/04/16 05:27:14;;;;;;;14.85;2.72;;;7.10;99.90;;;;;;22206183;26;20049;-77
2024/04/16 05:37:15;;;;;;;14.02;2.78;;;7.60;99.90;;;;;;22191638;26;20069;-76
2024/04/16 05:47:17;;;;;;;11.93;2.58;;;7.80;99.90;;;;;;22218630;26;20061;-78
2024/04/16 05:57:18;;;;;;;13.63;3.88;;;7.90;99.90;;;;;;22194894;26;20001;-78
2024/04/16 06:07:20;;;;;;;7.63;1.67;;;8.10;99.90;;;;;;22196575;26;20011;-77
2024/04/16 06:17:21;;;;;;;10.85;2.88;;;8.30;99.90;;;;;;22201481;26;20016;-77
2024/04/16 06:27:22;;;;;;;17.52;2.47;;;8.40;99.90;;;;;;22202984;26;20011;-77
2024/04/16 06:37:23;;;;;;;14.55;1.90;;;8.60;99.90;;;;;;22214413;26;20405;-77
2024/04/16 06:47:24;;;;;;;14.07;2.65;;;8.70;99.90;;;;;;22210236;26;20011;-77
2024/04/16 06:57:26;;;;;;;14.50;2.17;;;8.70;99.90;;;;;;22207155;26;20032;-77
2024/04/16 07:07:27;;;;;;;9.00;2.17;;;8.70;99.90;;;;;;22201565;26;20323;-76
2024/04/16 07:17:30;;;;;;;10.00;2.25;;;8.60;99.90;;;;;;22210375;26;20406;-77
2024/04/16 07:27:31;;;;;;;10.50;2.05;;;8.60;99.90;;;;;;22210041;26;20008;-77
2024/04/16 07:37:32;;;;;;;16.67;2.67;;;8.90;99.90;;;;;;22189227;26;20009;-76
2024/04/16 07:47:33;;;;;;;10.27;2.25;;;9.20;99.90;;;;;;22219650;26;20056;-77
2024/04/16 07:57:34;;;;;;;14.93;2.17;;;9.30;83.00;;;;;;22224301;26;20455;-76
2024/04/16 08:07:35;;;;;;;12.73;2.58;;;9.30;60.80;;;;;;22177329;26;20329;-76
2024/04/16 08:17:36;;;;;;;18.00;2.97;;;9.30;77.70;;;;;;22224217;26;20462;-76
2024/04/16 08:27:38;;;;;;;6.57;1.70;;;9.10;91.00;;;;;;22177620;26;20000;-74
2024/04/16 08:37:40;;;;;;;8.93;1.73;;;8.70;99.90;;;;;;22223274;26;20102;-74
2024/04/16 08:47:42;;;;;;;9.73;2.03;;;8.50;99.90;;;;;;22207123;26;19996;-75
2024/04/16 08:57:43;;;;;;;7.70;2.33;;;8.70;99.90;;;;;;22205881;26;20044;-75
2024/04/16 09:07:46;;;;;;;10.38;2.10;;;8.90;99.90;;;;;;22210907;26;20015;-76
2024/04/16 09:17:54;;;;;;;8.30;1.80;;;9.10;99.90;;;;;;22217929;26;19996;-74
2024/04/16 09:27:57;;;;;;;6.43;1.30;;;9.60;99.90;;;;;;22212416;26;20462;-76
2024/04/16 09:38:03;;;;;;;7.25;0.98;;;10.30;99.90;;;;;;22198147;26;20000;-78
2024/04/16 09:48:06;;;;;;;7.07;0.75;;;10.70;43.90;;;;;;22056758;26;23490;-77
2024/04/16 09:58:11;;;;;;;10.07;2.05;;;10.80;14.60;;;;;;22062302;26;20012;-80
2024/04/16 10:08:12;;;;;;;7.75;0.80;;;11.00;4.10;;;;;;22066181;26;20504;-78
2024/04/16 10:18:14;;;;;;;4.20;1.20;;;11.60;1.00;;;;;;22069158;26;20001;-79
2024/04/16 10:28:26;;;;;;;5.55;0.88;;;11.40;1.00;;;;;;22079371;26;20056;-80
2024/04/16 10:38:27;;;;;;;3.15;0.70;;;11.80;1.00;;;;;;22070507;26;20013;-80
2024/04/16 10:48:29;;;;;;;5.43;0.68;;;12.40;1.00;;;;;;22071405;26;20001;-77
2024/04/16 10:58:30;;;;;;;5.93;0.90;;;12.60;1.00;;;;;;22072362;26;20001;-78
2024/04/16 11:08:32;;;;;;;5.70;0.82;;;12.50;1.00;;;;;;22063222;26;20004;-78
2024/04/16 11:18:33;;;;;;;4.60;1.25;;;12.10;1.00;;;;;;22075954;26;20081;-78
2024/04/16 11:28:38;;;;;;;5.78;0.90;;;12.70;1.00;;;;;;22063060;26;20005;-78
2024/04/16 11:38:40;;;;;;;6.10;0.90;;;12.10;1.00;;;;;;22076748;26;20005;-78
2024/04/16 11:48:42;;;;;;;5.28;1.10;;;11.70;1.00;;;;;;22079816;26;20001;-78
2024/04/16 11:58:43;;;;;;;5.05;1.67;;;11.50;1.00;;;;;;22080040;26;20457;-74
2024/04/16 12:08:44;;;;;;;9.00;2.15;;;11.40;1.00;;;;;;22069604;26;20455;-73
2024/04/16 12:18:45;;;;;;;8.57;1.90;;;11.30;1.00;;;;;;22075029;26;20012;-75
2024/04/16 12:28:47;;;;;;;7.18;1.98;;;11.70;13.50;;;;;;22063953;26;20479;-74
2024/04/16 12:38:48;;;;;;;9.60;2.50;;;12.10;1.00;;;;;;22080646;26;19997;-75
2024/04/16 12:48:54;;;;;;;11.63;2.40;;;11.90;1.00;;;;;;22078627;26;20341;-74
2024/04/16 12:58:55;;;;;;;8.88;2.25;;;11.60;1.00;;;;;;22092699;26;20102;-74
2024/04/16 13:08:56;;;;;;;5.03;1.67;;;11.40;9.60;;;;;;22053085;26;20013;-76
2024/04/16 13:18:57;;;;;;;8.63;1.95;;;11.50;1.00;;;;;;22138465;26;20004;-77
2024/04/16 13:28:58;;;;;;;6.18;1.92;;;11.20;1.00;;;;;;22216480;26;20065;-79
2024/04/16 13:38:59;;;;;;;4.25;1.80;;;11.00;1.00;;;;;;22189568;26;20047;-77
2024/04/16 13:49:00;;;;;;;6.10;2.33;;;10.90;1.00;;;;;;22194062;26;19992;-77
2024/04/16 13:59:01;;;;;;;5.28;2.10;;;10.80;1.00;;;;;;22194610;26;20044;-77
2024/04/16 14:09:03;;;;;;;8.55;2.67;;;11.20;1.00;;;;;;22202604;26;20504;-77
2024/04/16 14:19:04;;;;;;;9.20;3.20;;;11.10;1.00;;;;;;22257364;26;20170;-76
2024/04/16 14:29:05;;;;;;;9.60;2.97;;;10.90;1.00;;;;;;22253690;26;20463;-77
2024/04/16 14:39:06;;;;;;;9.07;3.75;;;10.60;2.50;;;;;;22211150;26;20682;-76
2024/04/16 14:49:07;;;;;;;10.68;3.67;;;10.00;24.60;;;;;;22203972;26;20016;-77
2024/04/16 14:59:08;;;;;;;11.38;3.50;;;9.60;62.90;;;;;;22209367;26;20019;-75
2024/04/16 15:09:11;;;;;;;16.13;3.85;;;9.40;99.90;;;;;;22181678;26;20067;-77
2024/04/16 15:19:12;;;;;;;16.25;3.67;;;9.20;99.90;;;;;;22209002;26;20049;-77
2024/04/16 15:29:13;;;;;;;11.27;3.70;;;9.00;99.90;;;;;;22211202;26;20556;-77
2024/04/16 15:39:14;;;;;;;15.07;3.85;;;9.10;99.90;;;;;;22189362;26;20000;-79
2024/04/16 15:49:15;;;;;;;12.98;2.63;;;9.60;99.90;;;;;;22183349;26;20335;-79
2024/04/16 15:59:16;;;;;;;12.70;2.47;;;9.70;99.90;;;;;;22179689;26;20011;-79
2024/04/16 16:09:17;;;;;;;12.55;2.10;;;9.80;99.90;;;;;;22153659;26;20048;-79
2024/04/16 16:19:18;;;;;;;11.55;2.42;;;10.00;87.00;;;;;;22185095;26;20012;-79
2024/04/16 16:29:19;;;;;;;9.45;1.88;;;10.00;22.20;;;;;;22210005;26;20012;-79
2024/04/16 16:39:20;;;;;;;11.50;1.98;;;9.80;7.20;;;;;;22212784;26;20000;-77
2024/04/16 16:49:21;;;;;;;8.48;1.40;;;9.80;1.00;;;;;;22184387;26;20046;-78
2024/04/16 16:59:22;;;;;;;19.38;7.00;;;10.00;1.00;;;;;;22148141;26;20351;-78
2024/04/16 17:09:23;;;;;;;10.65;2.00;;;10.00;1.00;;;;;;22187064;26;21008;-78
2024/04/16 17:19:24;;;;;;;12.80;3.30;;;10.10;1.00;;;;;;22144059;26;20884;-78
2024/04/16 17:29:25;;;;;;;9.95;1.50;;;10.20;1.00;;;;;;22174952;26;20015;-79
2024/04/16 17:39:27;;;;;;;8.45;2.13;;;10.10;1.00;;;;;;22149420;26;20000;-79
2024/04/16 17:49:28;;;;;;;13.60;1.92;;;9.90;1.00;;;;;;22205172;26;20015;-78
2024/04/16 17:59:31;;;;;;;13.98;1.90;;;9.80;1.00;;;;;;22203902;26;20000;-79
2024/04/16 18:09:32;;;;;;;11.88;1.70;;;9.70;1.00;;;;;;22192924;26;20462;-79
2024/04/16 18:19:33;;;;;;;11.50;2.40;;;9.50;1.00;;;;;;22201043;26;20085;-80
2024/04/16 18:29:34;;;;;;;13.25;1.73;;;9.40;1.00;;;;;;22187607;26;20012;-79
2024/04/16 18:39:36;;;;;;;15.93;2.25;;;9.30;1.00;;;;;;22191429;26;20063;-79
2024/04/16 18:49:37;;;;;;;11.27;2.42;;;9.00;1.00;;;;;;22090155;26;20041;-80
2024/04/16 18:59:38;;;;;;;11.70;2.88;;;8.90;1.00;;;;;;22157311;26;20044;-80
2024/04/16 19:09:39;;;;;;;12.02;2.70;;;8.70;1.00;;;;;;22160956;26;20521;-77
2024/04/16 19:19:42;;;;;;;12.52;1.65;;;8.60;1.00;;;;;;22171314;26;20024;-77
2024/04/16 19:29:43;;;;;;;8.65;2.00;;;8.60;1.00;;;;;;22146555;26;20015;-77
2024/04/16 19:39:44;;;;;;;12.40;2.28;;;8.40;1.00;;;;;;22172547;26;19992;-77
2024/04/16 19:49:45;;;;;;;8.05;1.73;;;8.30;1.00;;;;;;22174216;26;20008;-77
2024/04/16 19:59:46;;;;;;;8.57;1.98;;;8.20;1.00;;;;;;22170118;26;20004;-77
2024/04/16 20:09:50;;;;;;;8.70;1.70;;;8.00;1.00;;;;;;22175940;26;22034;-77
2024/04/16 20:19:51;;;;;;;12.65;2.20;;;7.90;1.00;;;;;;22216437;26;19997;-77
2024/04/16 20:29:53;;;;;;;9.43;2.17;;;7.90;1.00;;;;;;22165201;26;20468;-77
2024/04/16 20:39:54;;;;;;;6.68;1.90;;;7.80;1.00;;;;;;22198688;26;20000;-77
2024/04/16 20:49:55;;;;;;;11.65;2.15;;;7.70;1.00;;;;;;22209555;26;20018;-76
2024/04/16 20:59:56;;;;;;;15.30;2.38;;;7.70;1.00;;;;;;22200932;26;20111;-76
2024/04/16 21:09:57;;;;;;;6.65;1.83;;;7.70;1.00;;;;;;22191380;26;20347;-77
2024/04/16 21:19:59;;;;;;;9.95;1.63;;;7.60;1.00;;;;;;22182862;26;19996;-77
2024/04/16 21:30:00;;;;;;;9.85;1.75;;;7.60;1.00;;;;;;22194612;26;20360;-77
2024/04/16 21:40:01;;;;;;;7.22;1.98;;;7.50;1.00;;;;;;22200270;26;20410;-77
2024/04/16 21:50:02;;;;;;;8.80;1.80;;;7.40;1.00;;;;;;22203502;26;20068;-77
2024/04/16 22:00:04;;;;;;;11.55;2.70;;;7.20;2.60;;;;;;22199167;26;23132;-77
2024/04/16 22:10:06;;;;;;;12.95;2.22;;;7.10;6.90;;;;;;22159222;26;20026;-78
2024/04/16 22:31:04;;;;;;;10.27;2.38;;;6.80;17.10;;;;;;22199813;26;20020;-77
2024/04/16 22:41:06;;;;;;;8.98;3.05;;;6.60;18.90;;;;;;22184162;26;20022;-77
2024/04/16 22:51:07;;;;;;;10.35;3.88;;;6.40;30.40;;;;;;22202458;26;20012;-77
2024/04/16 23:01:08;;;;;;;13.65;5.13;;;6.30;42.70;;;;;;22188878;26;20286;-77
2024/04/16 23:11:09;;;;;;;14.23;4.15;;;6.20;55.50;;;;;;22197417;26;20000;-77
2024/04/16 23:21:10;;;;;;;14.02;3.40;;;6.10;68.00;;;;;;22202825;26;20080;-77
2024/04/16 23:31:11;;;;;;;6.70;2.70;;;5.90;77.10;;;;;;22210167;26;20031;-77
2024/04/16 23:41:12;;;;;;;9.25;2.65;;;5.90;84.10;;;;;;22199053;26;20478;-77
2024/04/16 23:51:13;;;;;;;12.32;4.57;;;5.80;89.20;;;;;;22200431;26;19997;-78
